Time;durP1;ratioP1;P1;durP2;ratioP2;P2;SDS_P1;SDS_P2;PMS_P1;PMS_P2;Temp;Humidity;BMP_temperature;BMP_pressure;BME280_temperature;BME280_humidity;BME280_pressure;Samples;Min_cycle;Max_cycle;Signal;HPM_P1;HPM_P2
2021/05/28 00:00:46;;;;;;;2.38;1.10;;;23.10;37.70;;;;;;5013957;28;20520;-64
2021/05/28 00:03:12;;;;;;;2.47;1.45;;;23.00;37.60;;;;;;5013361;28;20021;-62
2021/05/28 00:05:39;;;;;;;2.50;1.27;;;23.00;37.60;;;;;;5014642;28;20091;-61
2021/05/28 00:08:05;;;;;;;2.03;1.23;;;23.00;37.60;;;;;;5013186;28;20116;-63
2021/05/28 00:10:31;;;;;;;1.67;1.17;;;23.00;37.60;;;;;;5013956;28;20128;-62
2021/05/28 00:12:57;;;;;;;1.58;1.17;;;23.00;37.70;;;;;;5013552;28;20459;-62
2021/05/28 00:15:23;;;;;;;2.75;1.38;;;23.00;37.60;;;;;;5014114;28;20303;-62
2021/05/28 00:17:49;;;;;;;1.45;0.98;;;23.00;37.60;;;;;;5013642;28;20034;-63
2021/05/28 00:20:15;;;;;;;2.40;1.30;;;22.90;37.60;;;;;;5014451;28;20022;-62
2021/05/28 00:22:42;;;;;;;2.08;1.05;;;22.90;37.60;;;;;;5014135;28;20354;-61
2021/05/28 00:25:09;;;;;;;1.83;1.30;;;22.90;37.60;;;;;;5014231;28;20022;-61
2021/05/28 00:27:35;;;;;;;1.70;1.30;;;22.90;37.70;;;;;;5013362;28;20034;-63
2021/05/28 00:30:03;;;;;;;2.13;1.27;;;22.90;37.70;;;;;;5014060;28;20052;-63
2021/05/28 00:32:29;;;;;;;1.27;0.88;;;22.90;37.70;;;;;;5014725;28;20030;-61
2021/05/28 00:34:55;;;;;;;2.45;1.30;;;22.90;37.70;;;;;;5014211;28;20111;-63
2021/05/28 00:37:20;;;;;;;2.20;1.15;;;22.90;37.70;;;;;;5013676;28;20452;-63
2021/05/28 00:39:46;;;;;;;2.65;1.30;;;22.90;37.70;;;;;;5012959;28;20034;-62
2021/05/28 00:42:12;;;;;;;1.92;1.20;;;22.90;37.70;;;;;;5014355;28;20033;-62
2021/05/28 00:44:40;;;;;;;2.08;1.17;;;22.80;37.70;;;;;;5013579;28;20026;-64
2021/05/28 00:47:06;;;;;;;1.45;1.10;;;22.80;37.70;;;;;;4997014;28;20033;-62
2021/05/28 00:49:32;;;;;;;2.20;1.17;;;22.80;37.70;;;;;;5013381;28;20101;-63
2021/05/28 00:51:58;;;;;;;1.85;1.40;;;22.80;37.70;;;;;;5014416;28;20085;-63
2021/05/28 00:54:25;;;;;;;1.23;0.82;;;22.80;37.70;;;;;;5014430;28;20463;-63
2021/05/28 00:56:51;;;;;;;1.58;1.10;;;22.80;37.70;;;;;;5013910;28;20045;-61
2021/05/28 00:59:18;;;;;;;2.08;1.20;;;22.80;37.70;;;;;;5013815;28;20055;-61
2021/05/28 01:01:45;;;;;;;1.38;0.95;;;22.80;37.80;;;;;;5016624;28;20049;-61
2021/05/28 01:04:11;;;;;;;1.45;1.02;;;22.80;37.70;;;;;;5016887;28;20040;-64
2021/05/28 01:06:37;;;;;;;1.90;0.98;;;22.70;37.70;;;;;;5018377;28;20026;-62
2021/05/28 01:09:04;;;;;;;1.80;1.02;;;22.80;37.80;;;;;;5017889;28;20524;-63
2021/05/28 01:11:30;;;;;;;1.40;1.00;;;22.80;37.80;;;;;;5017790;28;20052;-62
2021/05/28 01:13:56;;;;;;;1.45;0.80;;;22.70;37.70;;;;;;5016681;28;20034;-61
2021/05/28 01:16:22;;;;;;;1.05;0.90;;;22.70;37.70;;;;;;5017787;28;20061;-62
2021/05/28 01:18:48;;;;;;;1.55;1.00;;;22.70;37.70;;;;;;5017993;28;20054;-63
2021/05/28 01:21:14;;;;;;;1.33;0.98;;;22.70;37.70;;;;;;5016833;28;20244;-64
2021/05/28 01:23:40;;;;;;;1.63;1.20;;;22.70;37.70;;;;;;5018003;28;20114;-63
2021/05/28 01:26:07;;;;;;;1.58;1.00;;;22.70;37.70;;;;;;5017327;28;20045;-65
2021/05/28 01:28:33;;;;;;;2.05;1.13;;;22.70;37.70;;;;;;5018649;28;20109;-61
2021/05/28 01:30:59;;;;;;;1.77;1.00;;;22.70;38.30;;;;;;5018792;28;20054;-62
2021/05/28 01:33:26;;;;;;;1.50;0.80;;;22.70;38.30;;;;;;5017977;28;20527;-61
2021/05/28 01:35:55;;;;;;;1.27;1.00;;;22.70;37.60;;;;;;5019020;28;20025;-62
2021/05/28 01:38:21;;;;;;;1.30;1.00;;;22.70;37.60;;;;;;5018338;28;20115;-63
2021/05/28 01:40:47;;;;;;;1.27;0.90;;;22.70;37.50;;;;;;5017733;28;20022;-63
2021/05/28 01:43:13;;;;;;;2.20;1.52;;;22.80;37.60;;;;;;5017159;28;20032;-63
2021/05/28 01:45:39;;;;;;;1.15;0.82;;;22.80;37.60;;;;;;5016941;28;20030;-63
2021/05/28 01:48:05;;;;;;;1.63;1.10;;;22.80;37.60;;;;;;5017039;28;20117;-62
2021/05/28 01:50:42;;;;;;;1.15;1.00;;;22.80;37.50;;;;;;5016665;28;20092;-63
2021/05/28 01:53:12;;;;;;;1.10;1.00;;;22.90;37.60;;;;;;5015245;28;20384;-62
2021/05/28 01:55:38;;;;;;;1.77;0.98;;;22.90;37.60;;;;;;5016733;28;20063;-64
2021/05/28 01:58:13;;;;;;;1.20;1.00;;;22.90;37.60;;;;;;5016427;28;20034;-62
2021/05/28 02:00:40;;;;;;;2.17;0.93;;;22.90;37.50;;;;;;5017841;28;20040;-64
2021/05/28 02:03:07;;;;;;;1.88;1.10;;;22.90;37.60;;;;;;5015831;28;20038;-62
2021/05/28 02:05:33;;;;;;;2.08;1.20;;;22.90;37.50;;;;;;5018091;28;20105;-62
2021/05/28 02:07:59;;;;;;;1.70;0.80;;;22.90;37.50;;;;;;5019074;28;20030;-63
2021/05/28 02:10:26;;;;;;;0.90;0.80;;;22.90;37.50;;;;;;5016509;28;20038;-62
2021/05/28 02:12:52;;;;;;;1.77;1.00;;;22.90;37.50;;;;;;5016986;28;20045;-61
2021/05/28 02:15:19;;;;;;;1.30;1.10;;;22.90;37.50;;;;;;5014667;28;20049;-61
2021/05/28 02:17:45;;;;;;;1.13;0.98;;;22.90;37.50;;;;;;5016764;28;20327;-62
2021/05/28 02:20:11;;;;;;;1.48;0.98;;;22.90;37.40;;;;;;5014532;28;20076;-61
2021/05/28 02:22:37;;;;;;;1.10;0.90;;;22.90;37.50;;;;;;5016496;28;20375;-63
2021/05/28 02:25:05;;;;;;;2.00;1.13;;;22.90;37.50;;;;;;5016056;28;20034;-62
2021/05/28 02:27:32;;;;;;;1.10;1.00;;;22.90;37.40;;;;;;5015711;28;20026;-62
2021/05/28 02:29:58;;;;;;;1.25;0.80;;;22.90;38.00;;;;;;5015850;28;20077;-62
2021/05/28 02:32:25;;;;;;;0.70;0.60;;;22.90;37.40;;;;;;5016940;28;20033;-63
2021/05/28 02:34:50;;;;;;;0.90;0.70;;;22.90;37.40;;;;;;5015991;28;20093;-62
2021/05/28 02:37:16;;;;;;;1.30;1.00;;;22.90;38.00;;;;;;5016643;28;20196;-64
2021/05/28 02:39:42;;;;;;;1.63;0.90;;;22.90;37.40;;;;;;5016108;28;20022;-62
2021/05/28 02:42:09;;;;;;;1.27;0.98;;;22.90;37.30;;;;;;5016122;28;20068;-62
2021/05/28 02:44:35;;;;;;;1.05;0.77;;;22.90;37.30;;;;;;5015206;28;20069;-61
2021/05/28 02:47:01;;;;;;;1.00;0.80;;;22.90;37.30;;;;;;5015767;28;20053;-62
2021/05/28 02:49:27;;;;;;;1.08;0.93;;;22.90;38.00;;;;;;5015270;28;20029;-62
2021/05/28 02:51:53;;;;;;;0.80;0.70;;;22.90;37.30;;;;;;5016426;28;20461;-62
2021/05/28 02:54:19;;;;;;;1.15;0.90;;;22.90;37.30;;;;;;5014764;28;20041;-63
2021/05/28 02:56:44;;;;;;;2.15;0.70;;;22.90;37.30;;;;;;5016020;28;20038;-63
2021/05/28 02:59:10;;;;;;;0.63;0.60;;;22.90;37.30;;;;;;5015623;28;20026;-62
2021/05/28 03:01:36;;;;;;;1.70;0.75;;;22.90;37.20;;;;;;5015851;28;20037;-62
2021/05/28 03:04:02;;;;;;;1.00;0.80;;;22.90;37.20;;;;;;5015997;28;20045;-62
2021/05/28 03:06:30;;;;;;;0.80;0.80;;;22.90;37.20;;;;;;5016104;28;20032;-62
2021/05/28 03:08:56;;;;;;;0.65;0.65;;;22.90;37.20;;;;;;5015203;28;20025;-61
2021/05/28 03:11:22;;;;;;;0.82;0.65;;;22.90;37.20;;;;;;5014356;28;20046;-62
2021/05/28 03:13:48;;;;;;;1.23;0.80;;;22.90;37.20;;;;;;5015070;28;20342;-63
2021/05/28 03:16:14;;;;;;;0.55;0.55;;;22.90;37.20;;;;;;5014464;28;20100;-62
2021/05/28 03:18:52;;;;;;;0.73;0.52;;;22.90;37.20;;;;;;5014545;28;20453;-62
2021/05/28 03:21:24;;;;;;;0.80;0.60;;;22.90;37.20;;;;;;5014628;28;20319;-62
2021/05/28 03:23:52;;;;;;;0.85;0.70;;;22.90;37.10;;;;;;5014286;28;20038;-64
2021/05/28 03:26:20;;;;;;;0.85;0.73;;;22.90;37.10;;;;;;5015164;28;20040;-62
2021/05/28 03:28:45;;;;;;;1.15;0.70;;;22.90;37.10;;;;;;5015227;28;20065;-61
2021/05/28 03:31:12;;;;;;;1.08;0.60;;;22.90;37.10;;;;;;5015309;28;20080;-63
2021/05/28 03:33:38;;;;;;;1.15;0.82;;;22.90;37.10;;;;;;5015516;28;20026;-62
2021/05/28 03:36:06;;;;;;;1.05;0.68;;;22.90;37.10;;;;;;5015557;28;20030;-62
2021/05/28 03:38:32;;;;;;;1.20;0.80;;;22.90;37.10;;;;;;5008498;28;20034;-62
2021/05/28 03:40:58;;;;;;;0.60;0.60;;;22.90;37.10;;;;;;5014403;28;20034;-63
2021/05/28 03:43:24;;;;;;;0.82;0.73;;;22.90;37.10;;;;;;4995960;28;20030;-63
2021/05/28 03:45:50;;;;;;;1.10;0.80;;;22.90;37.10;;;;;;5002404;28;20033;-63
2021/05/28 03:48:17;;;;;;;1.73;0.95;;;22.90;37.10;;;;;;5013057;28;20099;-62
2021/05/28 03:50:43;;;;;;;1.05;0.70;;;22.90;37.20;;;;;;5013909;28;20470;-62
2021/05/28 03:53:09;;;;;;;1.00;0.73;;;22.90;37.10;;;;;;5015032;28;20030;-63
2021/05/28 03:55:34;;;;;;;2.70;0.60;;;22.90;37.10;;;;;;5014219;28;20052;-61
2021/05/28 03:58:00;;;;;;;0.77;0.60;;;22.90;37.10;;;;;;5014571;28;20456;-62
2021/05/28 04:00:26;;;;;;;1.20;0.80;;;22.90;37.10;;;;;;5013545;28;20049;-62
2021/05/28 04:02:52;;;;;;;1.08;0.77;;;22.90;37.10;;;;;;5014649;28;20026;-62
2021/05/28 04:05:18;;;;;;;0.70;0.65;;;22.90;37.10;;;;;;5014452;28;20100;-62
2021/05/28 04:07:45;;;;;;;1.35;0.70;;;22.90;37.10;;;;;;5014904;28;20045;-61
2021/05/28 04:10:12;;;;;;;0.90;0.70;;;22.90;37.10;;;;;;5013955;28;20417;-62
2021/05/28 04:12:38;;;;;;;0.90;0.60;;;22.90;37.20;;;;;;5014558;28;20353;-63
2021/05/28 04:15:05;;;;;;;1.48;0.70;;;22.90;37.20;;;;;;5013629;28;20041;-61
2021/05/28 04:17:31;;;;;;;0.80;0.80;;;22.90;37.20;;;;;;5013879;28;20030;-62
2021/05/28 04:19:57;;;;;;;1.55;0.80;;;22.90;37.20;;;;;;5014153;28;20044;-63
2021/05/28 04:22:22;;;;;;;1.65;0.95;;;22.90;37.20;;;;;;5012781;28;20038;-62
2021/05/28 04:24:48;;;;;;;0.70;0.68;;;22.90;37.20;;;;;;5012938;28;20453;-63
2021/05/28 04:27:14;;;;;;;0.90;0.68;;;22.90;37.30;;;;;;5014269;28;20338;-62
2021/05/28 04:29:40;;;;;;;0.75;0.70;;;22.90;37.40;;;;;;5012881;28;20060;-62
2021/05/28 04:32:06;;;;;;;0.75;0.73;;;22.80;37.40;;;;;;5014514;28;20095;-61
2021/05/28 04:34:34;;;;;;;1.05;0.90;;;22.80;37.50;;;;;;5013374;28;20326;-62
2021/05/28 04:37:00;;;;;;;0.98;0.77;;;22.80;37.50;;;;;;5014418;28;20038;-62
2021/05/28 04:39:26;;;;;;;0.88;0.77;;;22.70;37.50;;;;;;5013384;28;20116;-61
2021/05/28 04:41:53;;;;;;;1.73;0.68;;;22.70;37.60;;;;;;5014643;28;20344;-60
2021/05/28 04:44:19;;;;;;;0.95;0.73;;;22.70;37.60;;;;;;5011917;28;20038;-62
2021/05/28 04:46:45;;;;;;;0.90;0.70;;;22.70;37.60;;;;;;5013763;28;20088;-61
2021/05/28 04:49:11;;;;;;;1.00;0.70;;;22.70;37.60;;;;;;5013527;28;20029;-62
2021/05/28 04:51:38;;;;;;;0.70;0.60;;;22.60;37.60;;;;;;5014150;28;20044;-62
2021/05/28 04:54:04;;;;;;;0.60;0.60;;;22.60;37.70;;;;;;5013810;28;20088;-62
2021/05/28 04:56:30;;;;;;;0.70;0.60;;;22.70;37.70;;;;;;5013077;28;20441;-62
2021/05/28 04:58:56;;;;;;;0.80;0.68;;;22.70;37.70;;;;;;5013666;28;20069;-62
2021/05/28 05:01:22;;;;;;;1.02;0.82;;;22.70;37.70;;;;;;5013496;28;20148;-62
2021/05/28 05:03:48;;;;;;;0.75;0.75;;;22.60;37.70;;;;;;5014023;28;20041;-62
2021/05/28 05:06:14;;;;;;;0.65;0.65;;;22.60;37.80;;;;;;5013664;28;20029;-60
2021/05/28 05:08:40;;;;;;;1.40;0.90;;;22.60;37.80;;;;;;5013957;28;20557;-62
2021/05/28 05:11:06;;;;;;;1.13;0.95;;;22.60;37.80;;;;;;5014171;28;20037;-61
2021/05/28 05:13:32;;;;;;;0.80;0.75;;;22.60;37.90;;;;;;5013679;28;20034;-62
2021/05/28 05:15:59;;;;;;;0.63;0.63;;;22.50;37.90;;;;;;5013665;28;20041;-62
2021/05/28 05:18:25;;;;;;;1.75;0.80;;;22.50;37.90;;;;;;5013452;28;20030;-60
2021/05/28 05:20:51;;;;;;;0.80;0.77;;;22.50;37.90;;;;;;5012671;28;20132;-60
2021/05/28 05:23:18;;;;;;;1.17;0.90;;;22.50;38.00;;;;;;5010500;28;20049;-62
2021/05/28 05:25:44;;;;;;;1.30;0.90;;;22.50;38.00;;;;;;5012581;28;20052;-62
2021/05/28 05:28:10;;;;;;;0.80;0.70;;;22.40;38.00;;;;;;5013526;28;20038;-63
2021/05/28 05:30:36;;;;;;;0.90;0.65;;;22.40;38.00;;;;;;5014000;28;20046;-61
2021/05/28 05:33:02;;;;;;;1.30;0.77;;;22.50;38.10;;;;;;5013245;28;20022;-62
2021/05/28 05:35:28;;;;;;;1.27;0.98;;;22.50;38.00;;;;;;5013667;28;20026;-63
2021/05/28 05:37:57;;;;;;;0.63;0.60;;;22.50;38.00;;;;;;5012340;28;20041;-62
2021/05/28 05:40:23;;;;;;;0.70;0.70;;;22.40;38.00;;;;;;5012203;28;20026;-63
2021/05/28 05:42:49;;;;;;;1.30;0.88;;;22.40;38.00;;;;;;5013636;28;20044;-62
2021/05/28 05:45:16;;;;;;;0.70;0.70;;;22.40;38.10;;;;;;5012226;28;20184;-62
2021/05/28 05:47:43;;;;;;;0.77;0.68;;;22.40;38.10;;;;;;5016161;28;20026;-62
2021/05/28 05:50:13;;;;;;;0.90;0.60;;;22.40;38.20;;;;;;5016720;28;20025;-61
2021/05/28 05:52:39;;;;;;;0.90;0.80;;;22.40;38.20;;;;;;5017112;28;20034;-61
2021/05/28 05:55:06;;;;;;;0.85;0.85;;;22.40;38.30;;;;;;5017434;28;20473;-61
2021/05/28 05:57:32;;;;;;;0.95;0.80;;;22.40;38.30;;;;;;5017177;28;20037;-60
2021/05/28 05:59:58;;;;;;;1.05;0.80;;;22.30;38.30;;;;;;5015982;28;20038;-60
2021/05/28 06:02:24;;;;;;;0.70;0.70;;;22.30;38.30;;;;;;5016941;28;20060;-61
2021/05/28 06:04:49;;;;;;;0.80;0.80;;;22.30;38.30;;;;;;5015653;28;20109;-62
2021/05/28 06:07:18;;;;;;;0.95;0.70;;;22.30;38.40;;;;;;5016680;28;20058;-61
2021/05/28 06:09:44;;;;;;;0.82;0.80;;;22.30;38.40;;;;;;5015623;28;20469;-63
2021/05/28 06:12:11;;;;;;;0.80;0.60;;;22.30;38.40;;;;;;5017054;28;20038;-62
2021/05/28 06:14:37;;;;;;;0.80;0.70;;;22.30;38.40;;;;;;5016446;28;20100;-62
2021/05/28 06:17:02;;;;;;;0.82;0.70;;;22.30;38.40;;;;;;5016653;28;20030;-62
2021/05/28 06:19:28;;;;;;;1.02;0.80;;;22.30;38.40;;;;;;5016612;28;20025;-63
2021/05/28 06:21:54;;;;;;;0.60;0.60;;;22.30;38.50;;;;;;5016887;28;20034;-62
2021/05/28 06:24:20;;;;;;;1.00;0.90;;;22.30;38.50;;;;;;5014749;28;20113;-61
2021/05/28 06:26:46;;;;;;;0.80;0.70;;;22.30;38.60;;;;;;5015494;28;20488;-62
2021/05/28 06:29:12;;;;;;;1.00;0.90;;;22.30;38.60;;;;;;5015152;28;20034;-62
2021/05/28 06:31:38;;;;;;;0.80;0.80;;;22.30;38.60;;;;;;5016241;28;20176;-62
2021/05/28 06:34:04;;;;;;;1.17;0.80;;;22.30;38.60;;;;;;5016532;28;20022;-60
2021/05/28 06:36:30;;;;;;;1.05;0.95;;;22.30;38.60;;;;;;4998679;28;20117;-62
2021/05/28 06:38:56;;;;;;;0.80;0.80;;;22.30;38.60;;;;;;5014576;28;20409;-61
2021/05/28 06:41:22;;;;;;;0.70;0.70;;;22.30;38.70;;;;;;5015658;28;20034;-61
2021/05/28 06:43:49;;;;;;;1.27;0.90;;;22.30;38.70;;;;;;5014295;28;20037;-64
2021/05/28 06:46:16;;;;;;;0.60;0.60;;;22.30;38.70;;;;;;5015463;28;20040;-62
2021/05/28 06:48:42;;;;;;;0.80;0.80;;;22.30;38.70;;;;;;5016109;28;20116;-63
2021/05/28 06:51:09;;;;;;;1.05;0.75;;;22.30;38.70;;;;;;5015903;28;20044;-62
2021/05/28 06:53:35;;;;;;;0.80;0.70;;;22.30;38.70;;;;;;5014949;28;20034;-62
2021/05/28 06:56:01;;;;;;;0.70;0.60;;;22.30;38.70;;;;;;5015277;28;20037;-63
2021/05/28 06:58:27;;;;;;;0.68;0.63;;;22.30;38.80;;;;;;5012679;28;20033;-62
2021/05/28 07:00:53;;;;;;;0.70;0.60;;;22.30;38.70;;;;;;5011869;28;20048;-62
2021/05/28 07:03:19;;;;;;;1.00;0.75;;;22.30;38.80;;;;;;5016149;28;20041;-63
2021/05/28 07:05:45;;;;;;;0.93;0.68;;;22.30;38.80;;;;;;5015723;28;20026;-61
2021/05/28 07:08:11;;;;;;;0.63;0.63;;;22.30;38.80;;;;;;5014291;28;20033;-64
2021/05/28 07:10:37;;;;;;;1.05;0.80;;;22.30;38.90;;;;;;5015091;28;20353;-62
2021/05/28 07:13:03;;;;;;;1.13;0.90;;;22.30;38.90;;;;;;5014148;28;20347;-64
2021/05/28 07:15:29;;;;;;;1.30;0.80;;;22.30;38.90;;;;;;5012704;28;20043;-60
2021/05/28 07:17:56;;;;;;;0.70;0.65;;;22.20;38.90;;;;;;5013227;28;20417;-64
2021/05/28 07:20:23;;;;;;;0.70;0.70;;;22.30;38.90;;;;;;5014293;28;20037;-61
2021/05/28 07:22:49;;;;;;;1.00;0.68;;;22.30;38.90;;;;;;5013883;28;20033;-61
2021/05/28 07:25:15;;;;;;;1.15;0.70;;;22.30;38.80;;;;;;5014658;28;20117;-59
2021/05/28 07:27:48;;;;;;;0.88;0.73;;;22.30;38.80;;;;;;5017035;28;20026;-61
2021/05/28 07:30:15;;;;;;;1.02;0.73;;;22.30;38.90;;;;;;5014731;28;20250;-62
2021/05/28 07:32:41;;;;;;;1.00;0.77;;;22.30;38.80;;;;;;5025203;28;20408;-62
2021/05/28 07:35:08;;;;;;;0.80;0.77;;;22.30;38.80;;;;;;5030796;28;20092;-61
2021/05/28 07:37:35;;;;;;;0.85;0.77;;;22.30;38.80;;;;;;5015338;28;20088;-61
2021/05/28 07:40:01;;;;;;;0.80;0.80;;;22.30;38.80;;;;;;5014717;28;20022;-63
2021/05/28 07:42:26;;;;;;;0.70;0.70;;;22.30;38.80;;;;;;5013966;28;20514;-62
2021/05/28 07:44:52;;;;;;;0.80;0.80;;;22.30;38.80;;;;;;5013480;28;20026;-62
2021/05/28 07:47:18;;;;;;;0.80;0.80;;;22.30;38.70;;;;;;5014293;28;20338;-63
2021/05/28 07:49:44;;;;;;;0.65;0.63;;;22.30;38.70;;;;;;5015091;28;20064;-62
2021/05/28 07:52:10;;;;;;;0.95;0.80;;;22.30;38.70;;;;;;5015156;28;20430;-64
2021/05/28 07:54:36;;;;;;;0.77;0.77;;;22.30;38.70;;;;;;5014508;28;20117;-62
2021/05/28 07:57:06;;;;;;;1.58;1.00;;;22.30;38.70;;;;;;5028018;28;20086;-61
2021/05/28 07:59:32;;;;;;;0.93;0.80;;;22.30;38.70;;;;;;5032364;28;20036;-62
2021/05/28 08:01:58;;;;;;;1.10;1.00;;;22.30;38.80;;;;;;5014055;28;20034;-64
2021/05/28 08:04:24;;;;;;;3.45;1.85;;;22.30;38.80;;;;;;5012460;28;20157;-52
2021/05/28 08:06:49;;;;;;;2.88;1.75;;;22.30;38.80;;;;;;5013414;28;20029;-63
2021/05/28 08:09:15;;;;;;;3.83;1.60;;;22.30;38.80;;;;;;5013293;28;20433;-63
2021/05/28 08:11:43;;;;;;;3.10;1.60;;;22.30;38.80;;;;;;5014374;28;20053;-61
2021/05/28 08:14:09;;;;;;;3.95;1.73;;;22.30;38.80;;;;;;5013891;28;20033;-63
2021/05/28 08:16:38;;;;;;;3.20;1.60;;;22.30;38.90;;;;;;5014995;28;20021;-61
2021/05/28 08:19:04;;;;;;;2.80;1.52;;;22.30;38.90;;;;;;5012142;28;20477;-63
2021/05/28 08:21:30;;;;;;;2.60;1.65;;;22.30;38.90;;;;;;5014175;28;20057;-64
2021/05/28 08:23:56;;;;;;;3.38;1.63;;;22.30;39.00;;;;;;5012948;28;20046;-62
2021/05/28 08:26:22;;;;;;;2.60;1.25;;;22.30;39.00;;;;;;5014676;28;20041;-62
2021/05/28 08:28:47;;;;;;;1.67;1.30;;;22.40;39.10;;;;;;5013475;28;20033;-63
2021/05/28 08:31:13;;;;;;;1.13;1.00;;;22.40;39.10;;;;;;5013408;28;20511;-61
2021/05/28 08:33:39;;;;;;;1.52;1.17;;;22.40;39.10;;;;;;5012349;28;20435;-63
2021/05/28 08:36:06;;;;;;;1.75;1.20;;;22.50;39.00;;;;;;5011754;28;20033;-65
2021/05/28 08:38:32;;;;;;;1.70;1.00;;;22.50;39.00;;;;;;5013397;28;20334;-63
2021/05/28 08:40:59;;;;;;;1.17;1.05;;;22.60;38.90;;;;;;5013245;28;20048;-62
2021/05/28 08:43:24;;;;;;;1.40;1.20;;;22.60;38.80;;;;;;5013899;28;20104;-62
2021/05/28 08:45:51;;;;;;;1.55;1.10;;;22.60;38.80;;;;;;5013724;28;20117;-64
2021/05/28 08:48:18;;;;;;;1.33;1.00;;;22.70;38.70;;;;;;5013820;28;20057;-62
2021/05/28 08:50:47;;;;;;;1.30;1.02;;;22.70;38.60;;;;;;5012474;28;20156;-62
2021/05/28 08:53:13;;;;;;;1.17;0.90;;;22.70;38.50;;;;;;5014133;28;20044;-63
2021/05/28 08:55:41;;;;;;;1.88;1.40;;;22.80;38.50;;;;;;5013678;28;20353;-63
2021/05/28 08:58:09;;;;;;;1.30;0.93;;;22.80;38.40;;;;;;5014165;28;20042;-64
2021/05/28 09:00:35;;;;;;;1.25;1.00;;;22.80;38.30;;;;;;5013071;28;20037;-62
2021/05/28 09:03:30;;;;;;;1.63;1.27;;;22.90;38.30;;;;;;5012493;28;20117;-63
2021/05/28 09:06:01;;;;;;;1.58;1.20;;;22.90;38.10;;;;;;5013525;28;20104;-63
2021/05/28 09:08:35;;;;;;;1.33;1.00;;;22.90;38.10;;;;;;5014221;28;20116;-64
2021/05/28 09:11:08;;;;;;;1.42;1.10;;;22.90;38.00;;;;;;5013542;28;20034;-63
2021/05/28 09:13:41;;;;;;;1.58;1.00;;;23.00;38.00;;;;;;5012986;28;20536;-63
2021/05/28 09:16:14;;;;;;;2.10;1.20;;;22.90;38.00;;;;;;5014104;28;20439;-63
2021/05/28 09:18:41;;;;;;;1.15;0.90;;;23.00;37.90;;;;;;5012450;28;20040;-63
2021/05/28 09:21:08;;;;;;;1.20;0.90;;;23.00;37.80;;;;;;5013711;28;20057;-63
2021/05/28 09:23:35;;;;;;;1.10;1.00;;;23.00;37.80;;;;;;5016236;28;20053;-63
2021/05/28 09:26:05;;;;;;;1.10;1.00;;;23.00;37.70;;;;;;5017299;28;20121;-63
2021/05/28 09:28:49;;;;;;;1.63;1.00;;;23.10;37.70;;;;;;5016383;28;20418;-61
2021/05/28 09:31:22;;;;;;;1.33;0.95;;;23.10;37.70;;;;;;5002492;28;20052;-63
2021/05/28 09:33:51;;;;;;;1.08;0.98;;;23.10;37.70;;;;;;5017200;28;20037;-62
2021/05/28 09:36:33;;;;;;;1.58;1.20;;;23.10;37.60;;;;;;5017456;28;20315;-62
2021/05/28 09:39:12;;;;;;;1.02;0.90;;;23.20;37.60;;;;;;5017195;28;20068;-62
2021/05/28 09:41:41;;;;;;;1.02;0.82;;;23.10;37.60;;;;;;5010923;28;20117;-63
2021/05/28 09:44:16;;;;;;;1.48;1.08;;;23.10;37.60;;;;;;5016489;28;20026;-63
2021/05/28 09:46:57;;;;;;;1.70;1.00;;;23.10;37.50;;;;;;5017780;28;20116;-62
2021/05/28 09:49:28;;;;;;;1.60;1.00;;;23.20;37.50;;;;;;5017120;28;20026;-62
2021/05/28 09:52:20;;;;;;;0.88;0.88;;;23.20;37.40;;;;;;5017203;28;20452;-63
2021/05/28 09:55:08;;;;;;;1.48;1.20;;;23.20;37.30;;;;;;5016330;28;20041;-64
2021/05/28 09:57:35;;;;;;;1.23;0.70;;;23.20;37.20;;;;;;5017294;28;20116;-62
2021/05/28 10:00:09;;;;;;;0.95;0.70;;;23.20;37.20;;;;;;5016303;28;20064;-64
2021/05/28 10:02:42;;;;;;;1.05;0.88;;;23.20;37.00;;;;;;5016045;28;20066;-63
2021/05/28 10:05:09;;;;;;;0.75;0.68;;;23.20;37.00;;;;;;5017098;28;20499;-63
2021/05/28 10:07:37;;;;;;;1.63;0.98;;;23.10;36.80;;;;;;5016786;28;20087;-62
2021/05/28 10:10:04;;;;;;;0.88;0.88;;;23.20;36.80;;;;;;5015967;28;20113;-63
2021/05/28 10:12:30;;;;;;;1.38;1.00;;;23.20;36.70;;;;;;5017142;28;20049;-62
2021/05/28 10:14:56;;;;;;;0.90;0.80;;;23.20;36.60;;;;;;5016202;28;20025;-63
2021/05/28 10:17:22;;;;;;;0.70;0.70;;;23.20;36.50;;;;;;5017271;28;20512;-63
2021/05/28 10:19:49;;;;;;;1.15;1.00;;;23.20;36.40;;;;;;5015939;28;20314;-62
2021/05/28 10:22:18;;;;;;;0.95;0.80;;;23.20;36.30;;;;;;5016697;28;20045;-62
2021/05/28 10:24:45;;;;;;;0.90;0.80;;;23.20;36.20;;;;;;5016619;28;20351;-62
2021/05/28 10:27:19;;;;;;;0.75;0.70;;;23.30;36.20;;;;;;5015265;28;20449;-62
2021/05/28 10:29:49;;;;;;;1.42;1.00;;;23.30;36.20;;;;;;5014052;28;20053;-62
2021/05/28 10:32:15;;;;;;;0.98;0.80;;;23.30;36.10;;;;;;5003613;28;20062;-62
2021/05/28 10:35:16;;;;;;;1.13;0.68;;;23.30;36.10;;;;;;5013057;28;20367;-61
2021/05/28 10:37:46;;;;;;;0.95;0.57;;;23.30;35.80;;;;;;5010439;28;20045;-63
2021/05/28 10:40:31;;;;;;;0.55;0.55;;;23.30;35.80;;;;;;5016321;28;20441;-65
2021/05/28 10:42:58;;;;;;;0.80;0.70;;;23.30;35.60;;;;;;5014060;28;20054;-63
2021/05/28 10:45:58;;;;;;;0.73;0.73;;;23.30;35.60;;;;;;5014981;28;20042;-61
2021/05/28 10:48:39;;;;;;;1.27;0.88;;;23.30;35.50;;;;;;4980181;28;20065;-63
2021/05/28 10:51:06;;;;;;;1.40;0.80;;;23.30;35.60;;;;;;5004290;28;20029;-62
2021/05/28 10:53:35;;;;;;;1.60;1.20;;;23.30;35.80;;;;;;5016904;28;20397;-62
2021/05/28 10:56:13;;;;;;;0.73;0.73;;;23.30;35.80;;;;;;5022673;28;20088;-63
2021/05/28 10:58:55;;;;;;;1.42;0.90;;;23.30;35.70;;;;;;5015123;28;20061;-63
2021/05/28 11:01:48;;;;;;;0.98;0.73;;;23.40;35.80;;;;;;5015576;28;20057;-62
2021/05/28 11:04:21;;;;;;;1.23;0.90;;;23.40;35.80;;;;;;5015812;28;20045;-62
2021/05/28 11:06:59;;;;;;;1.05;0.85;;;23.40;35.80;;;;;;5015205;28;20045;-60
2021/05/28 11:09:42;;;;;;;0.90;0.80;;;23.40;35.90;;;;;;5010483;28;20033;-62
2021/05/28 11:12:37;;;;;;;0.90;0.77;;;23.40;35.90;;;;;;5012501;28;20049;-59
2021/05/28 11:15:13;;;;;;;2.08;1.08;;;23.50;35.90;;;;;;5010509;28;20046;-61
2021/05/28 11:18:04;;;;;;;1.10;0.85;;;23.50;36.00;;;;;;5013094;28;20041;-66
2021/05/28 11:20:30;;;;;;;0.82;0.80;;;23.60;36.00;;;;;;5012400;28;20477;-62
2021/05/28 11:22:57;;;;;;;1.33;0.70;;;23.60;35.90;;;;;;5013295;28;20030;-63
2021/05/28 11:25:28;;;;;;;0.70;0.70;;;23.70;35.70;;;;;;5013365;28;20022;-60
2021/05/28 11:28:09;;;;;;;0.90;0.55;;;23.70;35.50;;;;;;5012530;28;20030;-58
2021/05/28 11:30:48;;;;;;;1.35;0.45;;;23.80;35.30;;;;;;4996835;28;20049;-64
2021/05/28 11:33:35;;;;;;;0.65;0.50;;;23.90;35.20;;;;;;5014841;28;20022;-61
2021/05/28 11:36:26;;;;;;;0.52;0.52;;;24.00;35.10;;;;;;5013943;28;20087;-61
2021/05/28 11:39:02;;;;;;;0.65;0.50;;;24.00;35.00;;;;;;5011446;28;20053;-62
2021/05/28 11:41:49;;;;;;;0.60;0.50;;;24.00;35.00;;;;;;5013584;28;20036;-64
2021/05/28 11:44:17;;;;;;;0.55;0.32;;;24.10;34.80;;;;;;5010281;28;20104;-63
2021/05/28 11:46:45;;;;;;;1.00;0.50;;;24.10;34.70;;;;;;5010378;28;20022;-65
2021/05/28 11:49:12;;;;;;;1.05;0.55;;;24.20;34.60;;;;;;5009462;28;20037;-63
2021/05/28 11:51:38;;;;;;;0.47;0.40;;;24.10;34.50;;;;;;5010718;28;20049;-62
2021/05/28 11:54:25;;;;;;;1.40;0.52;;;24.20;34.50;;;;;;5012454;28;20029;-63
2021/05/28 11:57:24;;;;;;;1.00;0.40;;;24.20;34.30;;;;;;5011970;28;20061;-60
2021/05/28 11:59:52;;;;;;;2.30;0.50;;;24.30;34.30;;;;;;5009792;28;20046;-59
2021/05/28 12:02:46;;;;;;;0.30;0.30;;;24.30;34.90;;;;;;5014721;28;20053;-65
2021/05/28 12:05:15;;;;;;;0.50;0.47;;;24.30;34.80;;;;;;5012735;28;20109;-60
2021/05/28 12:07:41;;;;;;;1.17;0.40;;;24.30;34.20;;;;;;5012179;28;20037;-61
2021/05/28 12:10:08;;;;;;;0.57;0.40;;;24.40;34.30;;;;;;5011884;28;20022;-60
2021/05/28 12:12:54;;;;;;;0.60;0.50;;;24.40;34.20;;;;;;5012862;28;20065;-60
2021/05/28 12:15:34;;;;;;;0.70;0.40;;;24.50;34.00;;;;;;5011645;28;20346;-62
2021/05/28 12:18:12;;;;;;;0.68;0.38;;;24.50;34.00;;;;;;5013838;28;20462;-62
2021/05/28 12:20:38;;;;;;;0.47;0.45;;;24.50;34.00;;;;;;5012260;28;20037;-62
2021/05/28 12:23:08;;;;;;;0.85;0.50;;;24.60;34.00;;;;;;5012959;28;20030;-62
2021/05/28 12:25:40;;;;;;;1.40;0.40;;;24.60;34.00;;;;;;5014535;28;20489;-61
2021/05/28 12:28:11;;;;;;;0.90;0.30;;;24.60;33.80;;;;;;5014215;28;20026;-62
2021/05/28 12:30:38;;;;;;;0.43;0.40;;;24.60;33.80;;;;;;5013407;28;20121;-63
2021/05/28 12:33:04;;;;;;;0.80;0.40;;;24.60;33.70;;;;;;5014545;28;20026;-60
2021/05/28 12:35:30;;;;;;;0.38;0.25;;;24.60;33.60;;;;;;5013766;28;20188;-63
2021/05/28 12:38:12;;;;;;;0.40;0.32;;;24.60;33.50;;;;;;5013764;28;20329;-54
2021/05/28 12:40:43;;;;;;;0.40;0.40;;;24.60;33.30;;;;;;5014127;28;20425;-57
2021/05/28 12:43:10;;;;;;;0.20;0.20;;;24.60;33.40;;;;;;5013315;28;20117;-63
2021/05/28 12:45:38;;;;;;;0.35;0.35;;;24.60;33.30;;;;;;5013685;28;20116;-60
2021/05/28 12:48:05;;;;;;;0.30;0.30;;;24.60;33.20;;;;;;5014392;28;20038;-56
2021/05/28 12:50:33;;;;;;;0.28;0.28;;;24.60;33.10;;;;;;5014006;28;20061;-59
2021/05/28 12:53:16;;;;;;;2.70;0.40;;;24.60;33.00;;;;;;5013735;28;20038;-60
2021/05/28 12:55:52;;;;;;;0.50;0.20;;;24.60;32.90;;;;;;5013034;28;20338;-63